createdAt,value
2023-05-09T00:00:25.012Z,101793.41
2023-05-09T00:02:51.546Z,101794.72
2023-05-09T00:05:18.560Z,101793.22
2023-05-09T00:07:44.994Z,101784.94
2023-05-09T00:10:11.529Z,101779.03
2023-05-09T00:12:38.072Z,101773.53
2023-05-09T00:15:08.125Z,101774.81
2023-05-09T00:17:36.421Z,101777.72
2023-05-09T00:20:05.208Z,101774.81
2023-05-09T00:22:31.753Z,101768.19
2023-05-09T00:24:58.210Z,101770.41
2023-05-09T00:27:24.657Z,101773.66
2023-05-09T00:29:51.094Z,101778.09
2023-05-09T00:32:17.634Z,101769.09
2023-05-09T00:34:44.140Z,101767.16
2023-05-09T00:37:10.624Z,101766.25
2023-05-09T00:39:37.074Z,101769.53
2023-05-09T00:42:03.758Z,101762.00
2023-05-09T00:44:30.559Z,101759.47
2023-05-09T00:46:57.095Z,101757.44
2023-05-09T00:49:23.644Z,101758.84
2023-05-09T00:51:50.312Z,101762.03
2023-05-09T00:54:16.839Z,101758.41
2023-05-09T00:56:43.348Z,101751.19
2023-05-09T00:59:09.918Z,101756.41
2023-05-09T01:01:36.730Z,101762.19
2023-05-09T01:04:03.492Z,101748.47
2023-05-09T01:06:44.984Z,101747.13
2023-05-09T01:09:54.707Z,101739.81
2023-05-09T01:12:42.917Z,101737.69
2023-05-09T01:15:24.078Z,101729.69
2023-05-09T01:18:06.646Z,101728.03
2023-05-09T01:20:57.424Z,101719.47
2023-05-09T01:23:45.055Z,101715.16
2023-05-09T01:26:22.112Z,101709.34
2023-05-09T01:29:09.586Z,101706.31
2023-05-09T01:31:38.824Z,101699.63
2023-05-09T01:34:07.093Z,101698.03
2023-05-09T01:36:37.071Z,101697.63
2023-05-09T01:39:05.764Z,101692.03
2023-05-09T01:41:36.443Z,101697.31
2023-05-09T01:44:07.162Z,101691.50
2023-05-09T01:46:36.145Z,101692.63
2023-05-09T01:49:03.592Z,101689.72
2023-05-09T01:51:31.678Z,101684.38
2023-05-09T01:54:00.135Z,101682.78
2023-05-09T01:56:27.589Z,101684.19
2023-05-09T01:58:56.254Z,101676.97
2023-05-09T02:01:24.664Z,101680.88
2023-05-09T02:03:54.542Z,101685.19
2023-05-09T02:06:23.338Z,101674.59
2023-05-09T02:08:50.882Z,101672.56
2023-05-09T02:11:17.589Z,101665.19
2023-05-09T02:13:44.098Z,101680.75
2023-05-09T02:16:12.141Z,101674.25
2023-05-09T02:18:38.725Z,101664.38
2023-05-09T02:21:06.246Z,101664.66
2023-05-09T02:23:32.757Z,101661.50
2023-05-09T02:25:59.659Z,101659.56
2023-05-09T02:28:27.790Z,101662.97
2023-05-09T02:30:56.980Z,101663.34
2023-05-09T02:33:24.231Z,101656.81
2023-05-09T02:35:51.271Z,101662.28
2023-05-09T02:38:19.189Z,101662.28
2023-05-09T02:40:47.598Z,101652.84
2023-05-09T02:43:15.263Z,101654.78
2023-05-09T02:45:42.138Z,101666.59
2023-05-09T02:48:09.303Z,101662.09
2023-05-09T02:50:38.223Z,101656.53
2023-05-09T02:53:05.316Z,101656.47
2023-05-09T02:55:31.879Z,101659.44
2023-05-09T02:58:12.147Z,101649.25
2023-05-09T03:00:40.569Z,101648.00
2023-05-09T03:03:07.124Z,101641.84
2023-05-09T03:05:33.598Z,101647.03
2023-05-09T03:08:00.061Z,101634.50
2023-05-09T03:10:26.654Z,101635.59
2023-05-09T03:12:53.135Z,101635.16
2023-05-09T03:15:20.962Z,101628.00
2023-05-09T03:17:47.724Z,101630.03
2023-05-09T03:20:14.356Z,101629.59
2023-05-09T03:22:40.805Z,101619.03
2023-05-09T03:25:07.637Z,101613.19
2023-05-09T03:27:34.176Z,101613.66
2023-05-09T03:30:00.663Z,101613.66
2023-05-09T03:32:27.428Z,101618.59
2023-05-09T03:34:54.740Z,101608.03
2023-05-09T03:37:21.388Z,101606.50
2023-05-09T03:39:47.866Z,101592.84
2023-05-09T03:42:14.339Z,101589.50
2023-05-09T03:44:40.878Z,101582.16
2023-05-09T03:47:07.420Z,101584.53
2023-05-09T03:49:33.976Z,101585.63
2023-05-09T03:52:00.466Z,101578.84
2023-05-09T03:54:26.910Z,101575.69
2023-05-09T03:56:53.352Z,101579.91
2023-05-09T03:59:20.782Z,101579.56
2023-05-09T04:01:47.421Z,101565.59
2023-05-09T04:04:14.169Z,101569.16
2023-05-09T04:06:40.783Z,101564.03
2023-05-09T04:09:07.395Z,101564.03
2023-05-09T04:11:33.939Z,101563.25
2023-05-09T04:14:00.503Z,101565.47
2023-05-09T04:16:27.004Z,101559.72
2023-05-09T04:18:53.452Z,101566.84
2023-05-09T04:21:19.934Z,101562.19
2023-05-09T04:23:46.440Z,101562.09
2023-05-09T04:26:13.884Z,101561.03
2023-05-09T04:28:40.334Z,101563.03
2023-05-09T04:31:07.083Z,101562.25
2023-05-09T04:33:34.561Z,101556.00
2023-05-09T04:36:01.101Z,101559.81
2023-05-09T04:38:27.871Z,101552.25
2023-05-09T04:40:54.355Z,101547.22
2023-05-09T04:43:21.003Z,101550.66
2023-05-09T04:45:47.855Z,101545.63
2023-05-09T04:48:14.380Z,101553.56
2023-05-09T04:50:41.513Z,101542.63
2023-05-09T04:53:08.355Z,101534.00
2023-05-09T04:55:35.679Z,101543.75
2023-05-09T04:58:02.255Z,101536.81
2023-05-09T05:00:28.682Z,101534.16
2023-05-09T05:02:55.317Z,101536.25
2023-05-09T05:05:25.082Z,101528.06
2023-05-09T05:07:53.397Z,101524.59
2023-05-09T05:10:19.850Z,101513.03
2023-05-09T05:12:46.501Z,101516.28
2023-05-09T05:15:13.296Z,101516.34
2023-05-09T05:17:39.944Z,101507.00
2023-05-09T05:20:08.291Z,101500.47
2023-05-09T05:22:35.889Z,101495.00
2023-05-09T05:25:04.361Z,101502.88
2023-05-09T05:27:31.410Z,101491.59
2023-05-09T05:29:57.949Z,101488.63
2023-05-09T05:32:24.438Z,101483.69
2023-05-09T05:34:51.016Z,101493.47
2023-05-09T05:37:17.502Z,101482.59
2023-05-09T05:39:43.983Z,101482.28
2023-05-09T05:42:11.575Z,101475.81
2023-05-09T05:44:38.008Z,101474.75
2023-05-09T05:47:04.486Z,101474.38
2023-05-09T05:49:31.120Z,101475.59
2023-05-09T05:51:57.590Z,101473.78
2023-05-09T05:54:24.069Z,101482.13
2023-05-09T05:56:50.639Z,101464.47
2023-05-09T05:59:17.215Z,101477.84
2023-05-09T06:01:43.762Z,101479.44
2023-05-09T06:04:10.382Z,101468.47
2023-05-09T06:06:37.078Z,101472.00
2023-05-09T06:09:03.566Z,101467.41
2023-05-09T06:11:30.101Z,101463.13
2023-05-09T06:13:56.610Z,101460.78
2023-05-09T06:16:23.282Z,101454.13
2023-05-09T06:18:50.085Z,101452.19
2023-05-09T06:21:16.600Z,101443.56
2023-05-09T06:23:57.762Z,101440.47
2023-05-09T06:26:30.795Z,101443.97
2023-05-09T06:28:57.333Z,101443.97
2023-05-09T06:31:25.495Z,101436.56
2023-05-09T06:33:52.699Z,101430.31
2023-05-09T06:36:19.232Z,101427.50
2023-05-09T06:38:45.890Z,101423.13
2023-05-09T06:41:12.368Z,101425.81
2023-05-09T06:43:38.849Z,101418.09
2023-05-09T06:46:05.455Z,101417.00
2023-05-09T06:48:32.006Z,101421.31
2023-05-09T06:50:58.430Z,101414.97
2023-05-09T06:53:25.068Z,101408.72
2023-05-09T06:55:51.719Z,101410.66
2023-05-09T06:58:18.348Z,101413.47
2023-05-09T07:00:44.873Z,101406.41
2023-05-09T07:03:11.700Z,101404.50
2023-05-09T07:05:38.236Z,101415.09
2023-05-09T07:08:04.926Z,101402.63
2023-05-09T07:10:31.706Z,101402.56
2023-05-09T07:12:58.525Z,101408.03
2023-05-09T07:15:39.761Z,101406.47
2023-05-09T07:18:08.559Z,101396.69
2023-05-09T07:20:35.132Z,101406.09
2023-05-09T07:23:04.026Z,101405.69
2023-05-09T07:25:30.735Z,101393.09
2023-05-09T07:27:57.970Z,101392.63
2023-05-09T07:30:24.994Z,101387.06
2023-05-09T07:32:51.972Z,101391.72
2023-05-09T07:35:19.889Z,101384.25
2023-05-09T07:37:46.486Z,101383.75
2023-05-09T07:40:13.476Z,101390.75
2023-05-09T07:42:40.266Z,101387.94
2023-05-09T07:45:07.321Z,101380.53
2023-05-09T07:47:33.853Z,101376.31
2023-05-09T07:50:00.384Z,101384.91
2023-05-09T07:52:26.811Z,101379.81
2023-05-09T07:54:54.550Z,101373.97
2023-05-09T07:57:21.055Z,101369.69
2023-05-09T07:59:47.548Z,101367.31
2023-05-09T08:02:14.032Z,101361.47
2023-05-09T08:04:41.482Z,101359.81
2023-05-09T08:07:09.045Z,101354.28
2023-05-09T08:09:35.712Z,101356.22
2023-05-09T08:12:02.192Z,101356.50
2023-05-09T08:14:28.659Z,101351.72
2023-05-09T08:16:55.172Z,101346.94
2023-05-09T08:19:23.571Z,101353.56
2023-05-09T08:21:50.160Z,101350.38
2023-05-09T08:24:16.661Z,101342.50
2023-05-09T08:26:44.163Z,101345.28
2023-05-09T08:29:10.866Z,101334.31
2023-05-09T08:31:37.396Z,101337.69
2023-05-09T08:34:04.506Z,101328.28
2023-05-09T08:36:31.289Z,101334.09
2023-05-09T08:38:57.867Z,101326.22
2023-05-09T08:41:28.121Z,101318.75
2023-05-09T08:43:55.211Z,101322.28
2023-05-09T08:46:30.407Z,101314.50
2023-05-09T08:48:57.778Z,101312.91
2023-05-09T08:51:25.030Z,101313.59
2023-05-09T08:53:52.052Z,101304.66
2023-05-09T08:56:19.101Z,101307.03
2023-05-09T08:58:45.713Z,101302.28
2023-05-09T09:01:14.408Z,101300.69
2023-05-09T09:03:47.493Z,101302.28
2023-05-09T09:06:14.404Z,101300.41
2023-05-09T09:08:41.787Z,101302.66
2023-05-09T09:11:12.134Z,101301.44
2023-05-09T09:13:41.305Z,101302.59
2023-05-09T09:16:11.391Z,101295.63
2023-05-09T09:18:39.929Z,101294.75
2023-05-09T09:21:10.379Z,101293.63
2023-05-09T09:23:39.863Z,101293.63
2023-05-09T09:26:06.371Z,101292.38
2023-05-09T09:28:33.940Z,101285.34
2023-05-09T09:31:00.657Z,101279.13
2023-05-09T09:33:28.686Z,101279.97
2023-05-09T09:35:56.725Z,101283.91
2023-05-09T09:38:24.422Z,101283.53
2023-05-09T09:40:58.062Z,101278.72
2023-05-09T09:43:31.788Z,101278.31
2023-05-09T09:46:07.486Z,101284.06
2023-05-09T09:48:35.553Z,101271.91
2023-05-09T09:51:12.637Z,101275.16
2023-05-09T09:53:43.325Z,101273.50
2023-05-09T09:56:09.973Z,101273.88
2023-05-09T09:58:36.874Z,101275.44
2023-05-09T10:01:13.719Z,101271.91
2023-05-09T10:03:42.388Z,101262.53
2023-05-09T10:06:14.138Z,101259.28
2023-05-09T10:08:42.022Z,101258.63
2023-05-09T10:11:09.814Z,101261.16
2023-05-09T10:13:38.399Z,101262.44
2023-05-09T10:16:06.400Z,101256.19
2023-05-09T10:18:34.037Z,101261.78
2023-05-09T10:21:05.143Z,101262.50
2023-05-09T10:23:36.934Z,101262.03
2023-05-09T10:26:09.498Z,101253.41
2023-05-09T10:28:39.708Z,101245.53
2023-05-09T10:31:16.580Z,101254.13
2023-05-09T10:33:51.067Z,101251.78
2023-05-09T10:36:29.133Z,101238.47
2023-05-09T10:38:56.226Z,101233.75
2023-05-09T10:41:23.640Z,101225.97
2023-05-09T10:43:50.453Z,101228.72
2023-05-09T10:46:17.687Z,101216.63
2023-05-09T10:48:44.933Z,101221.44
2023-05-09T10:51:12.503Z,101215.09
2023-05-09T10:53:49.754Z,101220.19
2023-05-09T10:56:39.895Z,101208.00
2023-05-09T10:59:06.476Z,101201.69
2023-05-09T11:01:35.550Z,101206.00
2023-05-09T11:04:09.064Z,101204.06
2023-05-09T11:06:49.249Z,101195.50
2023-05-09T11:09:37.997Z,101192.28
2023-05-09T11:12:04.567Z,101191.09
2023-05-09T11:14:43.363Z,101189.19
2023-05-09T11:17:22.807Z,101192.03
2023-05-09T11:20:09.957Z,101178.00
2023-05-09T11:22:42.652Z,101177.38
2023-05-09T11:25:11.441Z,101179.34
2023-05-09T11:27:45.297Z,101173.81
2023-05-09T11:30:15.293Z,101170.31
2023-05-09T11:32:43.609Z,101174.97
2023-05-09T11:35:15.946Z,101158.94
2023-05-09T11:37:47.053Z,101163.59
2023-05-09T11:40:15.670Z,101159.75
2023-05-09T11:42:44.736Z,101148.75
2023-05-09T11:45:13.355Z,101160.53
2023-05-09T11:47:40.933Z,101149.59
2023-05-09T11:50:12.683Z,101149.94
2023-05-09T11:52:40.334Z,101149.13
2023-05-09T11:55:10.902Z,101143.53
2023-05-09T11:57:44.735Z,101143.63
2023-05-09T12:00:11.977Z,101137.78
2023-05-09T12:02:39.269Z,101134.69
2023-05-09T12:05:13.001Z,101133.47
2023-05-09T12:07:41.361Z,101132.34
2023-05-09T12:10:08.624Z,101126.47
2023-05-09T12:12:36.423Z,101130.38
2023-05-09T12:15:07.708Z,101124.13
2023-05-09T12:17:37.354Z,101122.59
2023-05-09T12:20:07.205Z,101121.44
2023-05-09T12:22:33.940Z,101124.25
2023-05-09T12:25:02.289Z,101115.28
2023-05-09T12:27:29.806Z,101117.66
2023-05-09T12:29:56.589Z,101113.75
2023-05-09T12:32:23.464Z,101117.38
2023-05-09T12:34:51.504Z,101116.22
2023-05-09T12:37:19.135Z,101104.53
2023-05-09T12:40:01.541Z,101101.09
2023-05-09T12:42:29.302Z,101092.66
2023-05-09T12:44:56.745Z,101094.22
2023-05-09T12:47:26.851Z,101088.34
2023-05-09T12:49:53.347Z,101088.34
2023-05-09T12:52:20.589Z,101086.41
2023-05-09T12:54:48.451Z,101083.63
2023-05-09T12:57:25.044Z,101080.06
2023-05-09T12:59:51.909Z,101082.75
2023-05-09T13:02:19.137Z,101076.00
2023-05-09T13:04:45.968Z,101071.59
2023-05-09T13:07:12.483Z,101077.84
2023-05-09T13:09:55.418Z,101072.84
2023-05-09T13:12:21.902Z,101072.78
2023-05-09T13:14:48.561Z,101067.69
2023-05-09T13:17:15.056Z,101062.97
2023-05-09T13:19:41.551Z,101070.03
2023-05-09T13:22:09.093Z,101063.03
2023-05-09T13:24:36.935Z,101061.84
2023-05-09T13:27:04.712Z,101055.19
2023-05-09T13:29:31.327Z,101058.22
2023-05-09T13:31:58.562Z,101049.63
2023-05-09T13:34:25.046Z,101044.16
2023-05-09T13:36:51.541Z,101047.75
2023-05-09T13:39:18.024Z,101046.59
2023-05-09T13:41:44.495Z,101042.69
2023-05-09T13:44:10.964Z,101044.63
2023-05-09T13:46:37.506Z,101044.19
2023-05-09T13:49:04.438Z,101039.84
2023-05-09T13:51:31.019Z,101040.53
2023-05-09T13:53:57.486Z,101034.25
2023-05-09T13:56:24.272Z,101036.50
2023-05-09T13:58:51.309Z,101037.66
2023-05-09T14:01:18.381Z,101033.47
2023-05-09T14:03:47.194Z,101035.44
2023-05-09T14:06:15.453Z,101039.72
2023-05-09T14:08:42.058Z,101036.47
2023-05-09T14:11:09.328Z,101024.75
2023-05-09T14:13:35.846Z,101031.00
2023-05-09T14:16:02.353Z,101034.91
2023-05-09T14:18:28.912Z,101017.28
2023-05-09T14:20:55.520Z,101018.50
2023-05-09T14:23:22.322Z,101016.91
2023-05-09T14:25:48.965Z,101018.44
2023-05-09T14:28:15.531Z,101015.28
2023-05-09T14:30:42.507Z,101008.31
2023-05-09T14:33:09.053Z,101020.09
2023-05-09T14:35:35.809Z,100998.91
2023-05-09T14:38:02.675Z,101002.81
2023-05-09T14:40:32.226Z,100998.91
2023-05-09T14:43:01.728Z,100998.91
2023-05-09T14:45:29.465Z,100995.88
2023-05-09T14:47:56.042Z,100991.19
2023-05-09T14:50:22.697Z,100994.28
2023-05-09T14:52:50.890Z,100987.22
2023-05-09T14:55:18.292Z,100982.13
2023-05-09T14:57:44.875Z,100985.63
2023-05-09T15:00:20.302Z,100973.94
2023-05-09T15:02:48.176Z,100969.63
2023-05-09T15:05:14.853Z,100975.13
2023-05-09T15:07:41.539Z,100966.94
2023-05-09T15:10:08.469Z,100970.88
2023-05-09T15:12:35.005Z,100970.16
2023-05-09T15:15:18.731Z,100968.56
2023-05-09T15:17:46.246Z,100965.41
2023-05-09T15:20:17.563Z,100965.84
2023-05-09T15:22:45.129Z,100958.06
2023-05-09T15:25:12.174Z,100956.13
2023-05-09T15:27:39.518Z,100942.78
2023-05-09T15:30:07.198Z,100950.19
2023-05-09T15:32:37.512Z,100951.31
2023-05-09T15:35:05.857Z,100948.91
2023-05-09T15:37:33.759Z,100946.56
2023-05-09T15:40:02.167Z,100947.28
2023-05-09T15:42:28.665Z,100952.28
2023-05-09T15:44:55.264Z,100948.75
2023-05-09T15:47:22.182Z,100951.78
2023-05-09T15:49:48.690Z,100945.47
2023-05-09T15:52:15.206Z,100946.69
2023-05-09T15:54:41.866Z,100945.53
2023-05-09T15:57:08.486Z,100944.31
2023-05-09T15:59:34.916Z,100940.44
2023-05-09T16:02:01.479Z,100938.81
2023-05-09T16:04:28.020Z,100935.59
2023-05-09T16:06:55.562Z,100926.16
2023-05-09T16:09:22.092Z,100933.16
2023-05-09T16:11:48.610Z,100931.22
2023-05-09T16:14:15.122Z,100926.53
2023-05-09T16:16:42.743Z,100926.94
2023-05-09T16:19:09.900Z,100928.09
2023-05-09T16:21:37.750Z,100930.81
2023-05-09T16:24:04.970Z,100921.03
2023-05-09T16:26:31.542Z,100920.56
2023-05-09T16:28:58.107Z,100924.91
2023-05-09T16:31:26.558Z,100906.59
2023-05-09T16:33:54.202Z,100911.19
2023-05-09T16:36:21.379Z,100912.34
2023-05-09T16:38:48.155Z,100910.00
2023-05-09T16:41:14.702Z,100911.94
2023-05-09T16:43:41.545Z,100908.44
2023-05-09T16:46:08.394Z,100897.88
2023-05-09T16:48:35.381Z,100901.03
2023-05-09T16:51:01.889Z,100899.75
2023-05-09T16:53:28.480Z,100894.31
2023-05-09T16:55:55.053Z,100887.28
2023-05-09T16:58:21.594Z,100895.16
2023-05-09T17:00:48.351Z,100884.25
2023-05-09T17:03:14.973Z,100888.19
2023-05-09T17:05:41.412Z,100888.91
2023-05-09T17:08:08.027Z,100888.19
2023-05-09T17:10:37.045Z,100883.03
2023-05-09T17:13:08.499Z,100884.25
2023-05-09T17:15:35.188Z,100881.88
2023-05-09T17:18:03.034Z,100879.91
2023-05-09T17:20:29.985Z,100881.53
2023-05-09T17:22:57.267Z,100876.84
2023-05-09T17:25:23.804Z,100876.06
2023-05-09T17:27:50.286Z,100877.94
2023-05-09T17:30:17.949Z,100872.44
2023-05-09T17:32:46.080Z,100873.59
2023-05-09T17:35:13.661Z,100861.84
2023-05-09T17:37:40.115Z,100870.81
2023-05-09T17:40:07.888Z,100876.25
2023-05-09T17:42:34.400Z,100862.63
2023-05-09T17:45:00.928Z,100868.50
2023-05-09T17:47:28.705Z,100871.22
2023-05-09T17:49:55.388Z,100868.06
2023-05-09T17:52:22.117Z,100864.53
2023-05-09T17:54:48.784Z,100873.13
2023-05-09T17:57:15.269Z,100869.91
2023-05-09T17:59:41.822Z,100870.69
2023-05-09T18:02:08.367Z,100867.97
2023-05-09T18:04:34.869Z,100867.56
2023-05-09T18:07:01.573Z,100866.75
2023-05-09T18:09:28.598Z,100868.66
2023-05-09T18:11:55.092Z,100862.44
2023-05-09T18:14:21.647Z,100867.41
2023-05-09T18:16:48.268Z,100865.81
2023-05-09T18:19:14.744Z,100865.81
2023-05-09T18:21:41.521Z,100861.91
2023-05-09T18:24:09.185Z,100866.91
2023-05-09T18:26:35.711Z,100861.44
2023-05-09T18:29:02.211Z,100864.25
2023-05-09T18:31:29.351Z,100860.28
2023-05-09T18:33:56.339Z,100858.34
2023-05-09T18:36:23.142Z,100853.28
2023-05-09T18:38:49.688Z,100857.56
2023-05-09T18:41:17.250Z,100858.34
2023-05-09T18:43:46.752Z,100857.53
2023-05-09T18:46:21.258Z,100862.19
2023-05-09T18:48:50.359Z,100864.13
2023-05-09T18:51:17.789Z,100858.31
2023-05-09T18:53:44.892Z,100866.91
2023-05-09T18:56:11.414Z,100857.22
2023-05-09T18:58:38.198Z,100857.94
2023-05-09T19:01:05.234Z,100856.00
2023-05-09T19:03:31.976Z,100865.41
2023-05-09T19:05:59.505Z,100861.09
2023-05-09T19:08:26.673Z,100865.41
2023-05-09T19:10:53.224Z,100861.53
2023-05-09T19:13:19.743Z,100860.66
2023-05-09T19:15:47.473Z,100858.72
2023-05-09T19:18:14.311Z,100863.41
2023-05-09T19:20:40.836Z,100866.84
2023-05-09T19:23:07.358Z,100867.66
2023-05-09T19:25:33.976Z,100871.16
2023-05-09T19:28:00.733Z,100869.22
2023-05-09T19:30:27.315Z,100866.84
2023-05-09T19:32:53.826Z,100873.47
2023-05-09T19:35:20.752Z,100874.25
2023-05-09T19:37:47.231Z,100881.22
2023-05-09T19:40:14.267Z,100878.13
2023-05-09T19:42:41.940Z,100884.75
2023-05-09T19:45:09.162Z,100874.25
2023-05-09T19:47:35.902Z,100881.28
2023-05-09T19:50:02.483Z,100889.09
2023-05-09T19:52:29.880Z,100882.00
2023-05-09T19:54:56.393Z,100883.97
2023-05-09T19:57:22.887Z,100889.41
2023-05-09T19:59:49.369Z,100883.84
2023-05-09T20:02:15.870Z,100895.88
2023-05-09T20:04:49.416Z,100898.16
2023-05-09T20:07:16.760Z,100896.59
2023-05-09T20:09:43.319Z,100898.16
2023-05-09T20:12:10.267Z,100898.16
2023-05-09T20:14:37.099Z,100895.44
2023-05-09T20:17:05.319Z,100896.22
2023-05-09T20:19:33.131Z,100905.16
2023-05-09T20:22:01.232Z,100903.53
2023-05-09T20:24:28.580Z,100903.06
2023-05-09T20:26:55.253Z,100901.88
2023-05-09T20:29:25.933Z,100900.66
2023-05-09T20:31:52.629Z,100904.09
2023-05-09T20:34:20.850Z,100898.97
2023-05-09T20:36:51.363Z,100905.16
2023-05-09T20:39:18.444Z,100903.13
2023-05-09T20:41:45.466Z,100904.66
2023-05-09T20:44:13.382Z,100909.22
2023-05-09T20:46:43.382Z,100920.50
2023-05-09T20:49:09.855Z,100915.78
2023-05-09T20:51:36.424Z,100919.19
2023-05-09T20:54:03.282Z,100924.97
2023-05-09T20:56:29.954Z,100923.41
2023-05-09T20:58:56.784Z,100919.47
2023-05-09T21:01:23.339Z,100914.41
2023-05-09T21:03:49.861Z,100918.31
2023-05-09T21:06:16.368Z,100918.75
2023-05-09T21:08:43.288Z,100917.25
2023-05-09T21:11:09.775Z,100928.06
2023-05-09T21:13:37.207Z,100924.13
2023-05-09T21:16:03.864Z,100924.13
2023-05-09T21:18:30.358Z,100917.97
2023-05-09T21:20:56.994Z,100917.91
2023-05-09T21:23:23.461Z,100914.75
2023-05-09T21:25:49.892Z,100913.25
2023-05-09T21:28:17.302Z,100910.16
2023-05-09T21:30:43.836Z,100900.91
2023-05-09T21:33:10.670Z,100913.38
2023-05-09T21:35:37.208Z,100896.34
2023-05-09T21:38:03.677Z,100890.53
2023-05-09T21:40:30.159Z,100895.59
2023-05-09T21:42:56.737Z,100896.06
2023-05-09T21:45:23.391Z,100901.00
2023-05-09T21:47:49.997Z,100891.69
2023-05-09T21:50:16.870Z,100894.75
2023-05-09T21:52:43.722Z,100888.94
2023-05-09T21:55:10.255Z,100889.03
2023-05-09T21:57:36.717Z,100885.50
2023-05-09T22:00:05.409Z,100882.00
2023-05-09T22:02:34.060Z,100878.47
2023-05-09T22:05:01.064Z,100889.81
2023-05-09T22:07:27.507Z,100892.97
2023-05-09T22:09:54.098Z,100891.31
2023-05-09T22:12:20.606Z,100882.00
2023-05-09T22:14:55.903Z,100877.81
2023-05-09T22:17:24.210Z,100879.03
2023-05-09T22:19:50.826Z,100879.09
2023-05-09T22:22:17.349Z,100874.44
2023-05-09T22:24:43.845Z,100870.94
2023-05-09T22:27:11.000Z,100879.09
2023-05-09T22:29:37.502Z,100878.78
2023-05-09T22:32:04.543Z,100879.25
2023-05-09T22:34:31.153Z,100873.00
2023-05-09T22:36:57.620Z,100872.94
2023-05-09T22:39:24.229Z,100879.16
2023-05-09T22:41:50.696Z,100877.22
2023-05-09T22:44:17.202Z,100883.91
2023-05-09T22:46:43.650Z,100875.72
2023-05-09T22:49:10.129Z,100875.28
2023-05-09T22:51:36.653Z,100875.34
2023-05-09T22:54:03.292Z,100874.50
2023-05-09T22:56:29.847Z,100871.34
2023-05-09T22:58:56.364Z,100872.88
2023-05-09T23:01:22.944Z,100876.81
2023-05-09T23:03:49.426Z,100874.13
2023-05-09T23:06:16.005Z,100880.03
2023-05-09T23:08:42.557Z,100880.81
2023-05-09T23:11:09.032Z,100885.53
2023-05-09T23:13:35.512Z,100878.13
2023-05-09T23:16:02.595Z,100882.78
2023-05-09T23:18:29.367Z,100873.47
2023-05-09T23:20:55.827Z,100870.31
2023-05-09T23:23:22.426Z,100876.19
2023-05-09T23:25:48.883Z,100869.97
2023-05-09T23:28:15.470Z,100872.69
2023-05-09T23:30:41.992Z,100885.94
2023-05-09T23:33:08.523Z,100871.94
2023-05-09T23:35:35.051Z,100871.53
2023-05-09T23:38:01.628Z,100869.59
2023-05-09T23:40:28.116Z,100870.03
2023-05-09T23:42:54.647Z,100869.16
2023-05-09T23:45:21.194Z,100873.09
2023-05-09T23:47:47.714Z,100865.66
2023-05-09T23:50:14.403Z,100864.50
2023-05-09T23:52:41.917Z,100860.63
2023-05-09T23:55:09.023Z,100859.44
2023-05-09T23:57:35.565Z,100861.28
